sensor_id;sensor_type;location;lat;lon;timestamp;P1;durP1;ratioP1;P2;durP2;ratioP2
32748;SDS011;19119;52.474;13.710;2024-02-15T00:02:20;8.65;;;5.93;;
32748;SDS011;19119;52.474;13.710;2024-02-15T00:04:45;9.82;;;6.50;;
32748;SDS011;19119;52.474;13.710;2024-02-15T00:07:11;10.95;;;5.57;;
32748;SDS011;19119;52.474;13.710;2024-02-15T00:09:36;8.57;;;5.90;;
32748;SDS011;19119;52.474;13.710;2024-02-15T00:12:02;10.88;;;6.70;;
32748;SDS011;19119;52.474;13.710;2024-02-15T00:14:27;11.38;;;6.20;;
32748;SDS011;19119;52.474;13.710;2024-02-15T00:16:53;11.07;;;6.13;;
32748;SDS011;19119;52.474;13.710;2024-02-15T00:19:19;10.18;;;6.13;;
32748;SDS011;19119;52.474;13.710;2024-02-15T00:21:46;9.80;;;5.97;;
32748;SDS011;19119;52.474;13.710;2024-02-15T00:24:12;9.85;;;6.22;;
32748;SDS011;19119;52.474;13.710;2024-02-15T00:26:39;8.80;;;5.80;;
32748;SDS011;19119;52.474;13.710;2024-02-15T00:29:05;10.43;;;5.82;;
32748;SDS011;19119;52.474;13.710;2024-02-15T00:31:31;10.27;;;6.47;;
32748;SDS011;19119;52.474;13.710;2024-02-15T00:33:56;9.63;;;6.05;;
32748;SDS011;19119;52.474;13.710;2024-02-15T00:36:22;12.82;;;6.75;;
32748;SDS011;19119;52.474;13.710;2024-02-15T00:38:48;10.73;;;6.38;;
32748;SDS011;19119;52.474;13.710;2024-02-15T00:41:13;12.43;;;6.35;;
32748;SDS011;19119;52.474;13.710;2024-02-15T00:43:39;10.98;;;6.47;;
32748;SDS011;19119;52.474;13.710;2024-02-15T00:46:04;12.70;;;6.50;;
32748;SDS011;19119;52.474;13.710;2024-02-15T00:48:30;9.43;;;5.97;;
32748;SDS011;19119;52.474;13.710;2024-02-15T00:50:56;11.57;;;6.45;;
32748;SDS011;19119;52.474;13.710;2024-02-15T00:53:21;11.40;;;6.68;;
32748;SDS011;19119;52.474;13.710;2024-02-15T00:55:47;9.98;;;6.07;;
32748;SDS011;19119;52.474;13.710;2024-02-15T00:58:12;9.52;;;6.35;;
32748;SDS011;19119;52.474;13.710;2024-02-15T01:00:38;9.13;;;6.07;;
32748;SDS011;19119;52.474;13.710;2024-02-15T01:03:03;11.90;;;6.13;;
32748;SDS011;19119;52.474;13.710;2024-02-15T01:05:29;7.75;;;5.80;;
32748;SDS011;19119;52.474;13.710;2024-02-15T01:07:55;10.32;;;6.43;;
32748;SDS011;19119;52.474;13.710;2024-02-15T01:10:21;10.60;;;6.28;;
32748;SDS011;19119;52.474;13.710;2024-02-15T01:12:47;9.80;;;6.28;;
32748;SDS011;19119;52.474;13.710;2024-02-15T01:15:13;9.70;;;6.70;;
32748;SDS011;19119;52.474;13.710;2024-02-15T01:17:40;10.75;;;6.60;;
32748;SDS011;19119;52.474;13.710;2024-02-15T01:20:06;12.48;;;6.15;;
32748;SDS011;19119;52.474;13.710;2024-02-15T01:22:32;10.75;;;6.63;;
32748;SDS011;19119;52.474;13.710;2024-02-15T01:24:57;10.02;;;6.50;;
32748;SDS011;19119;52.474;13.710;2024-02-15T01:27:23;12.32;;;6.70;;
32748;SDS011;19119;52.474;13.710;2024-02-15T01:29:48;11.38;;;6.63;;
32748;SDS011;19119;52.474;13.710;2024-02-15T01:32:14;12.38;;;6.40;;
32748;SDS011;19119;52.474;13.710;2024-02-15T01:34:39;13.30;;;6.97;;
32748;SDS011;19119;52.474;13.710;2024-02-15T01:37:05;12.30;;;6.38;;
32748;SDS011;19119;52.474;13.710;2024-02-15T01:39:30;12.65;;;7.60;;
32748;SDS011;19119;52.474;13.710;2024-02-15T01:41:56;15.88;;;6.85;;
32748;SDS011;19119;52.474;13.710;2024-02-15T01:44:22;12.48;;;7.07;;
32748;SDS011;19119;52.474;13.710;2024-02-15T01:46:49;11.00;;;7.43;;
32748;SDS011;19119;52.474;13.710;2024-02-15T01:49:17;13.85;;;8.05;;
32748;SDS011;19119;52.474;13.710;2024-02-15T01:51:42;10.88;;;6.45;;
32748;SDS011;19119;52.474;13.710;2024-02-15T01:54:10;13.95;;;7.55;;
32748;SDS011;19119;52.474;13.710;2024-02-15T01:56:37;13.25;;;7.18;;
32748;SDS011;19119;52.474;13.710;2024-02-15T01:59:03;14.70;;;7.38;;
32748;SDS011;19119;52.474;13.710;2024-02-15T02:01:29;14.13;;;7.60;;
32748;SDS011;19119;52.474;13.710;2024-02-15T02:03:58;13.48;;;7.25;;
32748;SDS011;19119;52.474;13.710;2024-02-15T02:06:24;13.60;;;7.47;;
32748;SDS011;19119;52.474;13.710;2024-02-15T02:08:51;11.82;;;7.07;;
32748;SDS011;19119;52.474;13.710;2024-02-15T02:11:17;14.10;;;7.25;;
32748;SDS011;19119;52.474;13.710;2024-02-15T02:13:42;13.32;;;8.02;;
32748;SDS011;19119;52.474;13.710;2024-02-15T02:16:26;15.57;;;8.07;;
32748;SDS011;19119;52.474;13.710;2024-02-15T02:18:57;12.98;;;8.32;;
32748;SDS011;19119;52.474;13.710;2024-02-15T02:21:23;12.88;;;8.45;;
32748;SDS011;19119;52.474;13.710;2024-02-15T02:23:52;17.85;;;7.30;;
32748;SDS011;19119;52.474;13.710;2024-02-15T02:26:20;12.30;;;7.43;;
32748;SDS011;19119;52.474;13.710;2024-02-15T02:28:47;11.55;;;7.85;;
32748;SDS011;19119;52.474;13.710;2024-02-15T02:31:12;13.75;;;7.80;;
32748;SDS011;19119;52.474;13.710;2024-02-15T02:33:38;14.82;;;8.32;;
32748;SDS011;19119;52.474;13.710;2024-02-15T02:36:06;14.88;;;8.38;;
32748;SDS011;19119;52.474;13.710;2024-02-15T02:38:34;13.55;;;7.80;;
32748;SDS011;19119;52.474;13.710;2024-02-15T02:41:02;16.02;;;8.52;;
32748;SDS011;19119;52.474;13.710;2024-02-15T02:43:31;15.90;;;9.00;;
32748;SDS011;19119;52.474;13.710;2024-02-15T02:45:57;19.73;;;8.55;;
32748;SDS011;19119;52.474;13.710;2024-02-15T02:48:22;16.60;;;9.45;;
32748;SDS011;19119;52.474;13.710;2024-02-15T02:50:48;14.07;;;9.10;;
32748;SDS011;19119;52.474;13.710;2024-02-15T02:53:14;16.65;;;9.30;;
32748;SDS011;19119;52.474;13.710;2024-02-15T02:55:43;14.02;;;8.32;;
32748;SDS011;19119;52.474;13.710;2024-02-15T02:58:08;14.98;;;8.75;;
32748;SDS011;19119;52.474;13.710;2024-02-15T03:00:34;16.17;;;9.43;;
32748;SDS011;19119;52.474;13.710;2024-02-15T03:02:59;15.35;;;9.93;;
32748;SDS011;19119;52.474;13.710;2024-02-15T03:05:26;15.25;;;8.70;;
32748;SDS011;19119;52.474;13.710;2024-02-15T03:07:51;16.25;;;9.05;;
32748;SDS011;19119;52.474;13.710;2024-02-15T03:10:17;16.55;;;9.32;;
32748;SDS011;19119;52.474;13.710;2024-02-15T03:12:43;17.65;;;9.43;;
32748;SDS011;19119;52.474;13.710;2024-02-15T03:15:11;15.95;;;9.68;;
32748;SDS011;19119;52.474;13.710;2024-02-15T03:17:41;17.23;;;10.25;;
32748;SDS011;19119;52.474;13.710;2024-02-15T03:20:08;17.50;;;10.10;;
32748;SDS011;19119;52.474;13.710;2024-02-15T03:22:53;14.65;;;9.25;;
32748;SDS011;19119;52.474;13.710;2024-02-15T03:25:20;16.95;;;10.10;;
32748;SDS011;19119;52.474;13.710;2024-02-15T03:27:48;17.27;;;9.38;;
32748;SDS011;19119;52.474;13.710;2024-02-15T03:30:16;18.73;;;10.00;;
32748;SDS011;19119;52.474;13.710;2024-02-15T03:32:42;21.02;;;10.23;;
32748;SDS011;19119;52.474;13.710;2024-02-15T03:35:07;16.73;;;9.48;;
32748;SDS011;19119;52.474;13.710;2024-02-15T03:37:33;17.05;;;10.15;;
32748;SDS011;19119;52.474;13.710;2024-02-15T03:40:02;18.23;;;10.60;;
32748;SDS011;19119;52.474;13.710;2024-02-15T03:42:29;17.15;;;10.05;;
32748;SDS011;19119;52.474;13.710;2024-02-15T03:44:55;19.50;;;11.13;;
32748;SDS011;19119;52.474;13.710;2024-02-15T03:47:20;20.60;;;9.85;;
32748;SDS011;19119;52.474;13.710;2024-02-15T03:49:46;18.58;;;10.60;;
32748;SDS011;19119;52.474;13.710;2024-02-15T03:52:12;17.52;;;9.30;;
32748;SDS011;19119;52.474;13.710;2024-02-15T03:54:37;18.90;;;10.07;;
32748;SDS011;19119;52.474;13.710;2024-02-15T03:57:03;18.63;;;10.02;;
32748;SDS011;19119;52.474;13.710;2024-02-15T03:59:31;18.15;;;10.95;;
32748;SDS011;19119;52.474;13.710;2024-02-15T04:01:57;20.83;;;10.48;;
32748;SDS011;19119;52.474;13.710;2024-02-15T04:04:22;20.63;;;10.07;;
32748;SDS011;19119;52.474;13.710;2024-02-15T04:06:48;23.05;;;11.00;;
32748;SDS011;19119;52.474;13.710;2024-02-15T04:09:14;19.23;;;10.60;;
32748;SDS011;19119;52.474;13.710;2024-02-15T04:11:40;19.42;;;10.93;;
32748;SDS011;19119;52.474;13.710;2024-02-15T04:14:06;18.92;;;10.13;;
32748;SDS011;19119;52.474;13.710;2024-02-15T04:16:31;20.50;;;10.15;;
32748;SDS011;19119;52.474;13.710;2024-02-15T04:18:58;20.25;;;10.60;;
32748;SDS011;19119;52.474;13.710;2024-02-15T04:21:24;19.60;;;10.48;;
32748;SDS011;19119;52.474;13.710;2024-02-15T04:23:49;17.63;;;9.93;;
32748;SDS011;19119;52.474;13.710;2024-02-15T04:26:16;17.75;;;9.85;;
32748;SDS011;19119;52.474;13.710;2024-02-15T04:28:44;17.33;;;9.80;;
32748;SDS011;19119;52.474;13.710;2024-02-15T04:31:13;17.08;;;9.68;;
32748;SDS011;19119;52.474;13.710;2024-02-15T04:33:39;16.77;;;9.73;;
32748;SDS011;19119;52.474;13.710;2024-02-15T04:36:04;16.40;;;9.93;;
32748;SDS011;19119;52.474;13.710;2024-02-15T04:38:31;18.50;;;9.80;;
32748;SDS011;19119;52.474;13.710;2024-02-15T04:40:59;16.75;;;9.77;;
32748;SDS011;19119;52.474;13.710;2024-02-15T04:43:30;20.35;;;9.75;;
32748;SDS011;19119;52.474;13.710;2024-02-15T04:45:58;19.15;;;9.80;;
32748;SDS011;19119;52.474;13.710;2024-02-15T04:48:23;17.50;;;9.57;;
32748;SDS011;19119;52.474;13.710;2024-02-15T04:50:49;17.67;;;9.80;;
32748;SDS011;19119;52.474;13.710;2024-02-15T04:53:16;17.08;;;9.48;;
32748;SDS011;19119;52.474;13.710;2024-02-15T04:55:42;21.98;;;9.93;;
32748;SDS011;19119;52.474;13.710;2024-02-15T04:58:07;19.50;;;10.20;;
32748;SDS011;19119;52.474;13.710;2024-02-15T05:00:35;23.15;;;9.75;;
32748;SDS011;19119;52.474;13.710;2024-02-15T05:03:01;18.60;;;10.27;;
32748;SDS011;19119;52.474;13.710;2024-02-15T05:05:27;18.40;;;10.82;;
32748;SDS011;19119;52.474;13.710;2024-02-15T05:07:54;18.13;;;9.65;;
32748;SDS011;19119;52.474;13.710;2024-02-15T05:10:19;22.60;;;10.68;;
32748;SDS011;19119;52.474;13.710;2024-02-15T05:12:45;18.52;;;9.80;;
32748;SDS011;19119;52.474;13.710;2024-02-15T05:15:13;22.23;;;10.13;;
32748;SDS011;19119;52.474;13.710;2024-02-15T05:17:41;18.63;;;10.13;;
32748;SDS011;19119;52.474;13.710;2024-02-15T05:20:10;20.60;;;10.88;;
32748;SDS011;19119;52.474;13.710;2024-02-15T05:22:37;19.90;;;10.63;;
32748;SDS011;19119;52.474;13.710;2024-02-15T05:25:04;21.15;;;10.55;;
32748;SDS011;19119;52.474;13.710;2024-02-15T05:27:30;22.25;;;11.20;;
32748;SDS011;19119;52.474;13.710;2024-02-15T05:29:56;18.60;;;10.60;;
32748;SDS011;19119;52.474;13.710;2024-02-15T05:32:22;23.63;;;11.60;;
32748;SDS011;19119;52.474;13.710;2024-02-15T05:34:47;20.63;;;10.07;;
32748;SDS011;19119;52.474;13.710;2024-02-15T05:37:13;21.40;;;11.10;;
32748;SDS011;19119;52.474;13.710;2024-02-15T05:39:40;18.67;;;11.07;;
32748;SDS011;19119;52.474;13.710;2024-02-15T05:42:06;23.45;;;11.40;;
32748;SDS011;19119;52.474;13.710;2024-02-15T05:44:32;19.20;;;10.65;;
32748;SDS011;19119;52.474;13.710;2024-02-15T05:46:59;20.70;;;11.00;;
32748;SDS011;19119;52.474;13.710;2024-02-15T05:49:25;23.00;;;11.15;;
32748;SDS011;19119;52.474;13.710;2024-02-15T05:51:50;24.73;;;11.48;;
32748;SDS011;19119;52.474;13.710;2024-02-15T05:54:18;19.70;;;11.48;;
32748;SDS011;19119;52.474;13.710;2024-02-15T05:56:44;24.02;;;12.23;;
32748;SDS011;19119;52.474;13.710;2024-02-15T05:59:09;23.27;;;12.18;;
32748;SDS011;19119;52.474;13.710;2024-02-15T06:01:38;23.77;;;10.68;;
32748;SDS011;19119;52.474;13.710;2024-02-15T06:04:05;20.50;;;11.15;;
32748;SDS011;19119;52.474;13.710;2024-02-15T06:06:34;27.70;;;14.88;;
32748;SDS011;19119;52.474;13.710;2024-02-15T06:08:59;25.55;;;13.32;;
32748;SDS011;19119;52.474;13.710;2024-02-15T06:11:26;24.98;;;14.20;;
32748;SDS011;19119;52.474;13.710;2024-02-15T06:13:51;26.98;;;11.93;;
32748;SDS011;19119;52.474;13.710;2024-02-15T06:16:17;23.52;;;11.68;;
32748;SDS011;19119;52.474;13.710;2024-02-15T06:18:43;24.17;;;12.20;;
32748;SDS011;19119;52.474;13.710;2024-02-15T06:21:08;25.10;;;13.05;;
32748;SDS011;19119;52.474;13.710;2024-02-15T06:23:34;25.90;;;12.02;;
32748;SDS011;19119;52.474;13.710;2024-02-15T06:26:00;21.17;;;11.10;;
32748;SDS011;19119;52.474;13.710;2024-02-15T06:28:27;25.08;;;12.15;;
32748;SDS011;19119;52.474;13.710;2024-02-15T06:31:31;24.88;;;12.02;;
32748;SDS011;19119;52.474;13.710;2024-02-15T06:34:15;24.58;;;12.57;;
32748;SDS011;19119;52.474;13.710;2024-02-15T06:36:59;22.83;;;12.10;;
32748;SDS011;19119;52.474;13.710;2024-02-15T06:39:43;24.60;;;12.15;;
32748;SDS011;19119;52.474;13.710;2024-02-15T06:44:43;27.10;;;12.73;;
32748;SDS011;19119;52.474;13.710;2024-02-15T06:47:09;24.13;;;11.73;;
32748;SDS011;19119;52.474;13.710;2024-02-15T06:49:36;26.90;;;12.57;;
32748;SDS011;19119;52.474;13.710;2024-02-15T06:52:04;24.73;;;12.27;;
32748;SDS011;19119;52.474;13.710;2024-02-15T06:54:32;23.85;;;11.45;;
32748;SDS011;19119;52.474;13.710;2024-02-15T06:56:58;26.35;;;13.93;;
32748;SDS011;19119;52.474;13.710;2024-02-15T06:59:23;26.55;;;12.98;;
32748;SDS011;19119;52.474;13.710;2024-02-15T07:01:49;25.58;;;12.95;;
32748;SDS011;19119;52.474;13.710;2024-02-15T07:04:17;25.33;;;13.13;;
32748;SDS011;19119;52.474;13.710;2024-02-15T07:06:43;27.05;;;12.43;;
32748;SDS011;19119;52.474;13.710;2024-02-15T07:09:12;25.83;;;13.15;;
32748;SDS011;19119;52.474;13.710;2024-02-15T07:11:40;31.35;;;13.43;;
32748;SDS011;19119;52.474;13.710;2024-02-15T07:14:05;25.60;;;12.90;;
32748;SDS011;19119;52.474;13.710;2024-02-15T07:16:32;27.63;;;12.88;;
32748;SDS011;19119;52.474;13.710;2024-02-15T07:18:58;25.83;;;13.43;;
32748;SDS011;19119;52.474;13.710;2024-02-15T07:21:24;25.88;;;13.60;;
32748;SDS011;19119;52.474;13.710;2024-02-15T07:23:54;23.75;;;12.02;;
32748;SDS011;19119;52.474;13.710;2024-02-15T07:26:21;24.45;;;11.23;;
32748;SDS011;19119;52.474;13.710;2024-02-15T07:28:49;25.02;;;11.55;;
32748;SDS011;19119;52.474;13.710;2024-02-15T07:31:19;22.48;;;11.20;;
32748;SDS011;19119;52.474;13.710;2024-02-15T07:33:46;26.13;;;12.32;;
32748;SDS011;19119;52.474;13.710;2024-02-15T07:36:19;21.73;;;11.65;;
32748;SDS011;19119;52.474;13.710;2024-02-15T07:38:46;23.52;;;11.00;;
32748;SDS011;19119;52.474;13.710;2024-02-15T07:41:13;23.73;;;11.35;;
32748;SDS011;19119;52.474;13.710;2024-02-15T07:43:39;25.75;;;11.68;;
32748;SDS011;19119;52.474;13.710;2024-02-15T07:46:05;24.40;;;11.02;;
32748;SDS011;19119;52.474;13.710;2024-02-15T07:48:31;26.95;;;11.77;;
32748;SDS011;19119;52.474;13.710;2024-02-15T07:50:57;21.85;;;10.02;;
32748;SDS011;19119;52.474;13.710;2024-02-15T07:53:23;20.98;;;9.82;;
32748;SDS011;19119;52.474;13.710;2024-02-15T07:55:49;24.02;;;11.32;;
32748;SDS011;19119;52.474;13.710;2024-02-15T07:58:15;22.20;;;11.60;;
32748;SDS011;19119;52.474;13.710;2024-02-15T08:00:43;18.88;;;9.98;;
32748;SDS011;19119;52.474;13.710;2024-02-15T08:03:09;22.98;;;10.52;;
32748;SDS011;19119;52.474;13.710;2024-02-15T08:05:35;21.27;;;10.23;;
32748;SDS011;19119;52.474;13.710;2024-02-15T08:08:02;24.23;;;10.98;;
32748;SDS011;19119;52.474;13.710;2024-02-15T08:10:28;22.00;;;11.18;;
32748;SDS011;19119;52.474;13.710;2024-02-15T08:12:54;22.00;;;10.38;;
32748;SDS011;19119;52.474;13.710;2024-02-15T08:15:22;26.60;;;11.23;;
32748;SDS011;19119;52.474;13.710;2024-02-15T08:17:49;19.33;;;9.90;;
32748;SDS011;19119;52.474;13.710;2024-02-15T08:20:15;26.02;;;11.40;;
32748;SDS011;19119;52.474;13.710;2024-02-15T08:22:46;20.75;;;11.00;;
32748;SDS011;19119;52.474;13.710;2024-02-15T08:25:12;22.83;;;10.38;;
32748;SDS011;19119;52.474;13.710;2024-02-15T08:27:39;22.08;;;10.45;;
32748;SDS011;19119;52.474;13.710;2024-02-15T08:30:12;21.00;;;11.30;;
32748;SDS011;19119;52.474;13.710;2024-02-15T08:32:39;22.00;;;9.45;;
32748;SDS011;19119;52.474;13.710;2024-02-15T08:35:06;21.67;;;10.52;;
32748;SDS011;19119;52.474;13.710;2024-02-15T08:37:36;23.63;;;10.20;;
32748;SDS011;19119;52.474;13.710;2024-02-15T08:40:03;23.83;;;11.63;;
32748;SDS011;19119;52.474;13.710;2024-02-15T08:42:29;18.42;;;9.50;;
32748;SDS011;19119;52.474;13.710;2024-02-15T08:44:55;19.13;;;9.13;;
32748;SDS011;19119;52.474;13.710;2024-02-15T08:47:22;21.55;;;10.85;;
32748;SDS011;19119;52.474;13.710;2024-02-15T08:49:47;19.45;;;10.23;;
32748;SDS011;19119;52.474;13.710;2024-02-15T08:52:13;22.15;;;9.68;;
32748;SDS011;19119;52.474;13.710;2024-02-15T08:54:38;23.30;;;9.57;;
32748;SDS011;19119;52.474;13.710;2024-02-15T08:57:04;19.90;;;9.68;;
32748;SDS011;19119;52.474;13.710;2024-02-15T08:59:31;20.23;;;9.60;;
32748;SDS011;19119;52.474;13.710;2024-02-15T09:01:56;17.20;;;8.68;;
32748;SDS011;19119;52.474;13.710;2024-02-15T09:04:22;20.52;;;10.32;;
32748;SDS011;19119;52.474;13.710;2024-02-15T09:06:49;21.52;;;10.32;;
32748;SDS011;19119;52.474;13.710;2024-02-15T09:09:15;21.63;;;10.88;;
32748;SDS011;19119;52.474;13.710;2024-02-15T09:11:41;24.45;;;9.77;;
32748;SDS011;19119;52.474;13.710;2024-02-15T09:14:07;21.58;;;9.80;;
32748;SDS011;19119;52.474;13.710;2024-02-15T09:16:36;16.80;;;8.45;;
32748;SDS011;19119;52.474;13.710;2024-02-15T09:19:01;18.40;;;8.80;;
32748;SDS011;19119;52.474;13.710;2024-02-15T09:21:27;17.10;;;8.55;;
32748;SDS011;19119;52.474;13.710;2024-02-15T09:23:54;18.98;;;9.43;;
32748;SDS011;19119;52.474;13.710;2024-02-15T09:26:19;17.63;;;8.45;;
32748;SDS011;19119;52.474;13.710;2024-02-15T09:28:45;17.70;;;9.05;;
32748;SDS011;19119;52.474;13.710;2024-02-15T09:31:12;19.25;;;8.73;;
32748;SDS011;19119;52.474;13.710;2024-02-15T09:33:38;17.30;;;7.97;;
32748;SDS011;19119;52.474;13.710;2024-02-15T09:36:04;17.42;;;9.13;;
32748;SDS011;19119;52.474;13.710;2024-02-15T09:38:30;19.48;;;8.55;;
32748;SDS011;19119;52.474;13.710;2024-02-15T09:40:56;25.52;;;9.10;;
32748;SDS011;19119;52.474;13.710;2024-02-15T09:43:21;22.52;;;9.02;;
32748;SDS011;19119;52.474;13.710;2024-02-15T09:45:50;15.90;;;8.20;;
32748;SDS011;19119;52.474;13.710;2024-02-15T09:48:17;17.33;;;8.85;;
32748;SDS011;19119;52.474;13.710;2024-02-15T09:50:43;18.20;;;8.65;;
32748;SDS011;19119;52.474;13.710;2024-02-15T09:53:11;16.73;;;8.00;;
32748;SDS011;19119;52.474;13.710;2024-02-15T09:55:39;15.05;;;7.80;;
32748;SDS011;19119;52.474;13.710;2024-02-15T09:58:06;16.52;;;7.40;;
32748;SDS011;19119;52.474;13.710;2024-02-15T10:00:33;17.38;;;8.43;;
32748;SDS011;19119;52.474;13.710;2024-02-15T10:03:00;17.17;;;7.38;;
32748;SDS011;19119;52.474;13.710;2024-02-15T10:05:27;15.95;;;8.27;;
32748;SDS011;19119;52.474;13.710;2024-02-15T10:07:53;15.00;;;8.18;;
32748;SDS011;19119;52.474;13.710;2024-02-15T10:10:19;13.32;;;7.10;;
32748;SDS011;19119;52.474;13.710;2024-02-15T10:12:46;13.57;;;6.82;;
32748;SDS011;19119;52.474;13.710;2024-02-15T10:15:31;12.55;;;7.30;;
32748;SDS011;19119;52.474;13.710;2024-02-15T10:17:58;12.75;;;6.97;;
32748;SDS011;19119;52.474;13.710;2024-02-15T10:20:24;12.77;;;6.90;;
32748;SDS011;19119;52.474;13.710;2024-02-15T10:25:25;12.15;;;6.78;;
32748;SDS011;19119;52.474;13.710;2024-02-15T10:27:52;13.10;;;6.70;;
32748;SDS011;19119;52.474;13.710;2024-02-15T10:30:27;10.80;;;6.13;;
32748;SDS011;19119;52.474;13.710;2024-02-15T10:32:54;12.10;;;6.25;;
32748;SDS011;19119;52.474;13.710;2024-02-15T10:35:21;10.40;;;6.30;;
32748;SDS011;19119;52.474;13.710;2024-02-15T10:37:48;9.52;;;5.47;;
32748;SDS011;19119;52.474;13.710;2024-02-15T10:40:17;12.98;;;5.90;;
32748;SDS011;19119;52.474;13.710;2024-02-15T10:42:43;10.40;;;6.25;;
32748;SDS011;19119;52.474;13.710;2024-02-15T10:45:16;11.15;;;6.22;;
32748;SDS011;19119;52.474;13.710;2024-02-15T10:47:43;11.90;;;6.32;;
32748;SDS011;19119;52.474;13.710;2024-02-15T10:50:10;11.57;;;5.85;;
32748;SDS011;19119;52.474;13.710;2024-02-15T10:52:37;9.77;;;5.72;;
32748;SDS011;19119;52.474;13.710;2024-02-15T10:55:10;11.65;;;6.90;;
32748;SDS011;19119;52.474;13.710;2024-02-15T10:57:39;10.20;;;5.70;;
32748;SDS011;19119;52.474;13.710;2024-02-15T11:00:09;11.35;;;7.00;;
32748;SDS011;19119;52.474;13.710;2024-02-15T11:02:54;10.02;;;5.80;;
32748;SDS011;19119;52.474;13.710;2024-02-15T11:05:29;11.85;;;6.00;;
32748;SDS011;19119;52.474;13.710;2024-02-15T11:07:59;9.50;;;6.05;;
32748;SDS011;19119;52.474;13.710;2024-02-15T11:10:26;8.82;;;5.80;;
32748;SDS011;19119;52.474;13.710;2024-02-15T11:12:52;10.27;;;6.18;;
32748;SDS011;19119;52.474;13.710;2024-02-15T11:21:10;11.20;;;6.33;;
32748;SDS011;19119;52.474;13.710;2024-02-15T11:23:36;10.00;;;5.30;;
32748;SDS011;19119;52.474;13.710;2024-02-15T11:26:02;10.35;;;5.40;;
32748;SDS011;19119;52.474;13.710;2024-02-15T11:30:54;8.80;;;4.95;;
32748;SDS011;19119;52.474;13.710;2024-02-15T11:33:24;7.95;;;5.13;;
32748;SDS011;19119;52.474;13.710;2024-02-15T11:38:36;8.23;;;5.05;;
32748;SDS011;19119;52.474;13.710;2024-02-15T11:41:06;8.07;;;4.63;;
32748;SDS011;19119;52.474;13.710;2024-02-15T11:46:13;6.43;;;4.03;;
32748;SDS011;19119;52.474;13.710;2024-02-15T11:48:39;6.70;;;4.05;;
32748;SDS011;19119;52.474;13.710;2024-02-15T11:51:05;10.15;;;4.38;;
32748;SDS011;19119;52.474;13.710;2024-02-15T11:53:36;7.15;;;4.25;;
32748;SDS011;19119;52.474;13.710;2024-02-15T11:56:02;7.35;;;4.40;;
32748;SDS011;19119;52.474;13.710;2024-02-15T11:58:29;7.32;;;4.40;;
32748;SDS011;19119;52.474;13.710;2024-02-15T12:01:07;8.93;;;5.22;;
32748;SDS011;19119;52.474;13.710;2024-02-15T12:03:55;9.73;;;5.57;;
32748;SDS011;19119;52.474;13.710;2024-02-15T12:06:39;7.60;;;5.38;;
32748;SDS011;19119;52.474;13.710;2024-02-15T12:09:24;7.97;;;4.65;;
32748;SDS011;19119;52.474;13.710;2024-02-15T12:12:11;6.90;;;5.65;;
32748;SDS011;19119;52.474;13.710;2024-02-15T12:15:01;6.95;;;4.75;;
32748;SDS011;19119;52.474;13.710;2024-02-15T12:17:46;7.68;;;4.60;;
32748;SDS011;19119;52.474;13.710;2024-02-15T12:22:57;6.80;;;4.80;;
32748;SDS011;19119;52.474;13.710;2024-02-15T12:25:25;5.80;;;3.85;;
32748;SDS011;19119;52.474;13.710;2024-02-15T12:27:52;5.50;;;3.70;;
32748;SDS011;19119;52.474;13.710;2024-02-15T12:30:19;7.07;;;3.70;;
32748;SDS011;19119;52.474;13.710;2024-02-15T12:32:46;7.68;;;4.43;;
32748;SDS011;19119;52.474;13.710;2024-02-15T12:35:16;7.03;;;3.65;;
32748;SDS011;19119;52.474;13.710;2024-02-15T12:40:33;7.20;;;3.30;;
32748;SDS011;19119;52.474;13.710;2024-02-15T12:43:00;5.13;;;2.90;;
32748;SDS011;19119;52.474;13.710;2024-02-15T12:45:26;7.43;;;3.75;;
32748;SDS011;19119;52.474;13.710;2024-02-15T12:47:55;4.70;;;3.25;;
32748;SDS011;19119;52.474;13.710;2024-02-15T12:50:22;4.72;;;2.95;;
32748;SDS011;19119;52.474;13.710;2024-02-15T12:52:54;5.25;;;2.70;;
32748;SDS011;19119;52.474;13.710;2024-02-15T12:55:31;4.13;;;3.13;;
32748;SDS011;19119;52.474;13.710;2024-02-15T12:57:59;4.25;;;2.90;;
32748;SDS011;19119;52.474;13.710;2024-02-15T13:00:29;6.43;;;3.42;;
32748;SDS011;19119;52.474;13.710;2024-02-15T13:03:02;5.00;;;2.88;;
32748;SDS011;19119;52.474;13.710;2024-02-15T13:05:28;5.10;;;2.67;;
32748;SDS011;19119;52.474;13.710;2024-02-15T13:07:55;7.13;;;2.75;;
32748;SDS011;19119;52.474;13.710;2024-02-15T13:10:22;5.63;;;2.22;;
32748;SDS011;19119;52.474;13.710;2024-02-15T13:12:48;5.05;;;2.30;;
32748;SDS011;19119;52.474;13.710;2024-02-15T13:15:16;8.77;;;3.10;;
32748;SDS011;19119;52.474;13.710;2024-02-15T13:17:52;5.57;;;2.80;;
32748;SDS011;19119;52.474;13.710;2024-02-15T13:20:21;4.68;;;2.30;;
32748;SDS011;19119;52.474;13.710;2024-02-15T13:22:56;4.20;;;2.08;;
32748;SDS011;19119;52.474;13.710;2024-02-15T13:25:25;3.05;;;1.77;;
32748;SDS011;19119;52.474;13.710;2024-02-15T13:27:50;2.85;;;1.58;;
32748;SDS011;19119;52.474;13.710;2024-02-15T13:30:16;2.40;;;1.58;;
32748;SDS011;19119;52.474;13.710;2024-02-15T13:32:46;2.28;;;1.40;;
32748;SDS011;19119;52.474;13.710;2024-02-15T13:35:11;1.92;;;1.20;;
32748;SDS011;19119;52.474;13.710;2024-02-15T13:37:47;2.22;;;1.10;;
32748;SDS011;19119;52.474;13.710;2024-02-15T13:40:22;4.30;;;2.40;;
32748;SDS011;19119;52.474;13.710;2024-02-15T13:42:49;4.05;;;2.47;;
32748;SDS011;19119;52.474;13.710;2024-02-15T13:45:39;4.10;;;1.55;;
32748;SDS011;19119;52.474;13.710;2024-02-15T13:48:04;1.75;;;1.33;;
32748;SDS011;19119;52.474;13.710;2024-02-15T13:50:32;1.77;;;1.05;;
32748;SDS011;19119;52.474;13.710;2024-02-15T13:52:57;4.15;;;1.33;;
32748;SDS011;19119;52.474;13.710;2024-02-15T13:55:23;3.17;;;1.10;;
32748;SDS011;19119;52.474;13.710;2024-02-15T13:57:52;5.90;;;1.30;;
32748;SDS011;19119;52.474;13.710;2024-02-15T14:00:20;2.72;;;1.20;;
32748;SDS011;19119;52.474;13.710;2024-02-15T14:02:49;4.68;;;1.10;;
32748;SDS011;19119;52.474;13.710;2024-02-15T14:05:20;2.67;;;1.10;;
32748;SDS011;19119;52.474;13.710;2024-02-15T14:07:51;2.92;;;1.25;;
32748;SDS011;19119;52.474;13.710;2024-02-15T14:10:20;2.70;;;1.10;;
32748;SDS011;19119;52.474;13.710;2024-02-15T14:12:49;3.47;;;0.90;;
32748;SDS011;19119;52.474;13.710;2024-02-15T14:15:17;1.52;;;0.90;;
32748;SDS011;19119;52.474;13.710;2024-02-15T14:17:44;2.72;;;0.90;;
32748;SDS011;19119;52.474;13.710;2024-02-15T14:20:09;4.25;;;2.10;;
32748;SDS011;19119;52.474;13.710;2024-02-15T14:22:43;6.28;;;2.50;;
32748;SDS011;19119;52.474;13.710;2024-02-15T14:25:10;4.70;;;2.10;;
32748;SDS011;19119;52.474;13.710;2024-02-15T14:27:37;2.58;;;1.60;;
32748;SDS011;19119;52.474;13.710;2024-02-15T14:30:04;3.72;;;1.48;;
32748;SDS011;19119;52.474;13.710;2024-02-15T14:32:49;4.35;;;1.63;;
32748;SDS011;19119;52.474;13.710;2024-02-15T14:35:34;4.50;;;1.83;;
32748;SDS011;19119;52.474;13.710;2024-02-15T14:38:03;3.33;;;2.10;;
32748;SDS011;19119;52.474;13.710;2024-02-15T14:40:35;3.17;;;1.50;;
32748;SDS011;19119;52.474;13.710;2024-02-15T14:43:02;2.72;;;1.35;;
32748;SDS011;19119;52.474;13.710;2024-02-15T14:45:29;3.10;;;1.30;;
32748;SDS011;19119;52.474;13.710;2024-02-15T14:47:59;4.20;;;1.17;;
32748;SDS011;19119;52.474;13.710;2024-02-15T14:50:25;1.55;;;1.20;;